createdAt,value
2018-02-23T00:00:40.028Z,-0.49
2018-02-23T00:01:39.934Z,-0.55
2018-02-23T00:02:39.845Z,-0.57
2018-02-23T00:03:39.756Z,-0.58
2018-02-23T00:04:39.689Z,-0.51
2018-02-23T00:05:39.598Z,-0.60
2018-02-23T00:06:39.510Z,-0.60
2018-02-23T00:07:39.454Z,-0.60
2018-02-23T00:08:39.335Z,-0.65
2018-02-23T00:09:39.251Z,-0.70
2018-02-23T00:10:39.167Z,-0.72
2018-02-23T00:11:39.092Z,-0.69
2018-02-23T00:12:39.009Z,-0.69
2018-02-23T00:13:38.908Z,-0.76
2018-02-23T00:14:38.817Z,-0.69
2018-02-23T00:15:38.729Z,-0.85
2018-02-23T00:16:38.651Z,-0.80
2018-02-23T00:17:38.569Z,-0.75
2018-02-23T00:18:38.490Z,-0.82
2018-02-23T00:19:38.417Z,-0.86
2018-02-23T00:20:38.307Z,-0.85
2018-02-23T00:21:38.224Z,-0.85
2018-02-23T00:22:38.138Z,-0.82
2018-02-23T00:23:38.055Z,-0.78
2018-02-23T00:24:37.976Z,-0.65
2018-02-23T00:25:37.889Z,-0.70
2018-02-23T00:26:37.810Z,-0.69
2018-02-23T00:27:37.718Z,-0.72
2018-02-23T00:28:37.631Z,-0.65
2018-02-23T00:29:37.540Z,-0.70
2018-02-23T00:30:37.464Z,-0.69
2018-02-23T00:31:37.372Z,-0.73
2018-02-23T00:32:37.287Z,-0.61
2018-02-23T00:33:37.221Z,-0.62
2018-02-23T00:34:37.116Z,-0.61
2018-02-23T00:35:37.035Z,-0.67
2018-02-23T00:36:36.946Z,-0.72
2018-02-23T00:37:36.862Z,-0.72
2018-02-23T00:38:36.772Z,-0.82
2018-02-23T00:39:36.684Z,-0.86
2018-02-23T00:40:36.613Z,-0.85
2018-02-23T00:41:36.512Z,-0.79
2018-02-23T00:42:36.441Z,-0.82
2018-02-23T00:43:36.363Z,-0.89
2018-02-23T00:44:36.259Z,-0.89
2018-02-23T00:45:36.176Z,-0.97
2018-02-23T00:46:36.090Z,-0.95
2018-02-23T00:47:36.008Z,-0.92
2018-02-23T00:48:35.922Z,-0.98
2018-02-23T00:49:35.836Z,-1.05
2018-02-23T00:50:35.760Z,-1.16
2018-02-23T00:51:35.664Z,-1.15
2018-02-23T00:52:35.580Z,-1.04
2018-02-23T00:53:35.496Z,-1.04
2018-02-23T00:54:35.397Z,-1.04
2018-02-23T00:55:35.312Z,-1.12
2018-02-23T00:56:35.239Z,-1.10
2018-02-23T00:57:35.171Z,-1.15
2018-02-23T00:58:35.066Z,-1.19
2018-02-23T00:59:34.973Z,-1.17
2018-02-23T01:00:34.895Z,-1.25
2018-02-23T01:01:34.815Z,-1.15
2018-02-23T01:02:34.725Z,-1.19
2018-02-23T01:03:34.641Z,-1.22
2018-02-23T01:04:34.562Z,-1.30
2018-02-23T01:05:34.465Z,-1.28
2018-02-23T01:06:34.374Z,-1.28
2018-02-23T01:07:34.288Z,-1.35
2018-02-23T01:08:34.208Z,-1.34
2018-02-23T01:09:34.114Z,-1.33
2018-02-23T01:10:34.042Z,-1.40
2018-02-23T01:11:33.967Z,-1.35
2018-02-23T01:12:33.863Z,-1.35
2018-02-23T01:13:33.781Z,-1.40
2018-02-23T01:14:33.688Z,-1.34
2018-02-23T01:15:33.602Z,-1.35
2018-02-23T01:16:33.525Z,-1.31
2018-02-23T01:17:33.444Z,-1.37
2018-02-23T01:18:33.365Z,-1.37
2018-02-23T01:19:33.266Z,-1.45
2018-02-23T01:20:33.174Z,-1.40
2018-02-23T01:21:33.100Z,-1.35
2018-02-23T01:22:33.013Z,-1.45
2018-02-23T01:23:32.919Z,-1.43
2018-02-23T01:24:32.832Z,-1.49
2018-02-23T01:25:32.746Z,-1.43
2018-02-23T01:26:32.666Z,-1.45
2018-02-23T01:27:32.592Z,-1.49
2018-02-23T01:28:32.488Z,-1.43
2018-02-23T01:29:32.417Z,-1.51
2018-02-23T01:30:32.320Z,-1.45
2018-02-23T01:31:32.226Z,-1.51
2018-02-23T01:32:32.142Z,-1.55
2018-02-23T01:33:32.065Z,-1.59
2018-02-23T01:34:31.974Z,-1.54
2018-02-23T01:35:31.905Z,-1.58
2018-02-23T01:36:31.804Z,-1.56
2018-02-23T01:37:31.723Z,-1.56
2018-02-23T01:38:31.627Z,-1.51
2018-02-23T01:39:31.538Z,-1.52
2018-02-23T01:40:31.477Z,-1.56
2018-02-23T01:41:31.365Z,-1.54
2018-02-23T01:42:31.300Z,-1.56
2018-02-23T01:43:31.200Z,-1.56
2018-02-23T01:44:31.121Z,-1.56
2018-02-23T01:45:31.041Z,-1.59
2018-02-23T01:46:30.941Z,-1.61
2018-02-23T01:47:30.867Z,-1.61
2018-02-23T01:48:30.771Z,-1.59
2018-02-23T01:49:30.684Z,-1.61
2018-02-23T01:50:30.606Z,-1.61
2018-02-23T01:51:30.519Z,-1.55
2018-02-23T01:52:30.417Z,-1.64
2018-02-23T01:53:30.356Z,-1.64
2018-02-23T01:54:30.272Z,-1.70
2018-02-23T01:55:30.174Z,-1.64
2018-02-23T01:56:30.097Z,-1.67
2018-02-23T01:57:29.997Z,-1.72
2018-02-23T01:58:29.907Z,-1.73
2018-02-23T01:59:29.821Z,-1.67
2018-02-23T02:00:29.730Z,-1.73
2018-02-23T02:01:29.647Z,-1.77
2018-02-23T02:02:29.559Z,-1.77
2018-02-23T02:03:29.470Z,-1.74
2018-02-23T02:04:29.400Z,-1.76
2018-02-23T02:05:29.312Z,-1.79
2018-02-23T02:06:29.229Z,-1.80
2018-02-23T02:07:29.145Z,-1.80
2018-02-23T02:08:29.051Z,-1.85
2018-02-23T02:09:28.961Z,-1.77
2018-02-23T02:10:28.870Z,-1.76
2018-02-23T02:11:28.788Z,-1.84
2018-02-23T02:12:28.704Z,-1.77
2018-02-23T02:13:28.617Z,-1.88
2018-02-23T02:14:28.534Z,-1.87
2018-02-23T02:15:28.457Z,-1.84
2018-02-23T02:16:28.355Z,-1.85
2018-02-23T02:17:28.280Z,-1.85
2018-02-23T02:18:28.190Z,-1.90
2018-02-23T02:19:28.099Z,-1.94
2018-02-23T02:20:28.030Z,-1.97
2018-02-23T02:21:27.920Z,-1.97
2018-02-23T02:22:27.854Z,-1.88
2018-02-23T02:23:27.750Z,-1.91
2018-02-23T02:24:27.670Z,-1.94
2018-02-23T02:25:27.592Z,-1.95
2018-02-23T02:26:27.494Z,-1.97
2018-02-23T02:27:27.407Z,-1.97
2018-02-23T02:28:27.334Z,-1.94
2018-02-23T02:29:27.242Z,-2.06
2018-02-23T02:30:27.155Z,-2.05
2018-02-23T02:31:27.065Z,-1.98
2018-02-23T02:32:26.989Z,-2.03
2018-02-23T02:33:26.889Z,-2.05
2018-02-23T02:34:26.797Z,-2.06
2018-02-23T02:35:26.721Z,-2.08
2018-02-23T02:36:26.638Z,-2.10
2018-02-23T02:37:26.544Z,-2.10
2018-02-23T02:38:26.463Z,-2.10
2018-02-23T02:39:26.387Z,-2.15
2018-02-23T02:40:26.294Z,-2.18
2018-02-23T02:41:26.209Z,-2.20
2018-02-23T02:42:26.130Z,-2.13
2018-02-23T02:43:26.032Z,-2.13
2018-02-23T02:44:25.951Z,-2.27
2018-02-23T02:45:25.846Z,-2.32
2018-02-23T02:46:25.769Z,-2.30
2018-02-23T02:47:25.687Z,-2.39
2018-02-23T02:48:25.637Z,-2.34
2018-02-23T02:49:25.525Z,-2.34
2018-02-23T02:50:25.439Z,-2.24
2018-02-23T02:51:25.334Z,-2.40
2018-02-23T02:52:25.254Z,-2.30
2018-02-23T02:53:25.166Z,-2.32
2018-02-23T02:54:25.077Z,-2.34
2018-02-23T02:55:24.996Z,-2.48
2018-02-23T02:56:24.907Z,-2.49
2018-02-23T02:57:24.835Z,-2.48
2018-02-23T02:58:24.723Z,-2.52
2018-02-23T02:59:24.637Z,-2.50
2018-02-23T03:00:24.552Z,-2.42
2018-02-23T03:01:24.474Z,-2.52
2018-02-23T03:02:24.388Z,-2.49
2018-02-23T03:03:24.304Z,-2.64
2018-02-23T03:04:24.225Z,-2.53
2018-02-23T03:05:24.125Z,-2.61
2018-02-23T03:06:24.047Z,-2.61
2018-02-23T03:07:23.961Z,-2.63
2018-02-23T03:08:23.865Z,-2.67
2018-02-23T03:09:23.783Z,-2.63
2018-02-23T03:10:23.706Z,-2.68
2018-02-23T03:11:23.604Z,-2.60
2018-02-23T03:12:23.516Z,-2.61
2018-02-23T03:13:23.426Z,-2.60
2018-02-23T03:14:23.343Z,-2.68
2018-02-23T03:15:23.269Z,-2.67
2018-02-23T03:16:23.169Z,-2.70
2018-02-23T03:17:23.087Z,-2.71
2018-02-23T03:18:22.999Z,-2.68
2018-02-23T03:19:22.920Z,-2.70
2018-02-23T03:20:22.836Z,-2.73
2018-02-23T03:21:22.738Z,-2.73
2018-02-23T03:22:22.662Z,-2.79
2018-02-23T03:23:22.570Z,-2.79
2018-02-23T03:24:22.484Z,-2.82
2018-02-23T03:25:22.405Z,-2.85
2018-02-23T03:26:22.306Z,-2.79
2018-02-23T03:27:22.215Z,-2.85
2018-02-23T03:28:22.134Z,-2.85
2018-02-23T03:29:22.049Z,-2.81
2018-02-23T03:30:21.956Z,-2.85
2018-02-23T03:31:21.869Z,-2.81
2018-02-23T03:32:21.784Z,-2.84
2018-02-23T03:33:21.713Z,-2.85
2018-02-23T03:34:21.604Z,-2.88
2018-02-23T03:35:21.527Z,-2.94
2018-02-23T03:36:21.439Z,-2.88
2018-02-23T03:37:21.352Z,-2.89
2018-02-23T03:38:21.271Z,-2.91
2018-02-23T03:39:21.182Z,-2.94
2018-02-23T03:40:21.103Z,-2.82
2018-02-23T03:41:21.005Z,-2.99
2018-02-23T03:42:20.918Z,-2.89
2018-02-23T03:43:20.828Z,-2.86
2018-02-23T03:44:20.744Z,-2.91
2018-02-23T03:45:20.658Z,-2.94
2018-02-23T03:46:20.578Z,-2.97
2018-02-23T03:47:20.483Z,-2.99
2018-02-23T03:48:20.404Z,-2.97
2018-02-23T03:49:20.306Z,-2.97
2018-02-23T03:50:20.216Z,-2.97
2018-02-23T03:51:20.134Z,-2.97
2018-02-23T03:52:20.052Z,-2.97
2018-02-23T03:53:19.952Z,-3.05
2018-02-23T03:54:19.876Z,-2.99
2018-02-23T03:55:19.782Z,-3.00
2018-02-23T03:56:19.704Z,-2.99
2018-02-23T03:57:19.611Z,-3.02
2018-02-23T03:58:19.525Z,-2.97
2018-02-23T03:59:19.439Z,-3.10
2018-02-23T04:00:19.360Z,-3.10
2018-02-23T04:01:19.266Z,-3.10
2018-02-23T04:02:19.183Z,-3.09
2018-02-23T04:03:19.107Z,-3.07
2018-02-23T04:04:19.004Z,-3.12
2018-02-23T04:05:18.976Z,-3.12
2018-02-23T04:06:18.843Z,-3.15
2018-02-23T04:07:18.756Z,-3.09
2018-02-23T04:08:18.660Z,-3.06
2018-02-23T04:09:18.588Z,-3.12
2018-02-23T04:10:18.485Z,-3.20
2018-02-23T04:11:18.406Z,-3.17
2018-02-23T04:12:18.310Z,-3.17
2018-02-23T04:13:18.224Z,-3.17
2018-02-23T04:14:18.133Z,-3.21
2018-02-23T04:15:18.046Z,-3.25
2018-02-23T04:16:17.961Z,-3.10
2018-02-23T04:17:17.878Z,-3.14
2018-02-23T04:18:17.785Z,-3.15
2018-02-23T04:19:17.707Z,-3.21
2018-02-23T04:20:17.611Z,-3.28
2018-02-23T04:21:17.530Z,-3.24
2018-02-23T04:22:17.432Z,-3.21
2018-02-23T04:23:17.348Z,-3.25
2018-02-23T04:24:17.269Z,-3.31
2018-02-23T04:25:17.172Z,-3.35
2018-02-23T04:26:17.090Z,-3.30
2018-02-23T04:27:17.000Z,-3.28
2018-02-23T04:28:16.912Z,-3.31
2018-02-23T04:29:16.825Z,-3.31
2018-02-23T04:30:16.734Z,-3.30
2018-02-23T04:31:16.666Z,-3.35
2018-02-23T04:32:16.569Z,-3.31
2018-02-23T04:33:16.488Z,-3.33
2018-02-23T04:34:16.396Z,-3.31
2018-02-23T04:35:16.314Z,-3.24
2018-02-23T04:36:16.232Z,-3.35
2018-02-23T04:37:16.150Z,-3.33
2018-02-23T04:38:16.046Z,-3.35
2018-02-23T04:39:15.966Z,-3.33
2018-02-23T04:40:15.882Z,-3.38
2018-02-23T04:41:15.785Z,-3.39
2018-02-23T04:42:15.711Z,-3.38
2018-02-23T04:43:15.618Z,-3.36
2018-02-23T04:44:15.529Z,-3.42
2018-02-23T04:45:15.441Z,-3.38
2018-02-23T04:46:15.354Z,-3.39
2018-02-23T04:47:15.260Z,-3.52
2018-02-23T04:48:15.184Z,-3.52
2018-02-23T04:49:15.134Z,-3.48
2018-02-23T04:50:15.028Z,-3.52
2018-02-23T04:51:14.912Z,-3.49
2018-02-23T04:52:14.821Z,-3.56
2018-02-23T04:53:14.748Z,-3.43
2018-02-23T04:54:14.653Z,-3.46
2018-02-23T04:55:14.570Z,-3.62
2018-02-23T04:56:14.478Z,-3.49
2018-02-23T04:57:14.392Z,-3.60
2018-02-23T04:58:14.318Z,-3.60
2018-02-23T04:59:14.215Z,-3.59
2018-02-23T05:00:14.140Z,-3.57
2018-02-23T05:01:14.039Z,-3.59
2018-02-23T05:02:13.947Z,-3.62
2018-02-23T05:03:13.868Z,-3.53
2018-02-23T05:04:13.786Z,-3.62
2018-02-23T05:05:13.694Z,-3.63
2018-02-23T05:06:13.609Z,-3.60
2018-02-23T05:07:13.517Z,-3.59
2018-02-23T05:08:13.441Z,-3.60
2018-02-23T05:09:13.340Z,-3.63
2018-02-23T05:10:13.258Z,-3.63
2018-02-23T05:11:13.167Z,-3.62
2018-02-23T05:12:13.079Z,-3.60
2018-02-23T05:13:12.992Z,-3.64
2018-02-23T05:14:12.908Z,-3.59
2018-02-23T05:15:12.811Z,-3.60
2018-02-23T05:16:12.750Z,-3.62
2018-02-23T05:17:12.645Z,-3.64
2018-02-23T05:18:12.556Z,-3.67
2018-02-23T05:19:12.466Z,-3.64
2018-02-23T05:20:12.392Z,-3.63
2018-02-23T05:21:12.298Z,-3.60
2018-02-23T05:22:12.201Z,-3.60
2018-02-23T05:23:12.113Z,-3.60
2018-02-23T05:24:12.029Z,-3.66
2018-02-23T05:25:11.951Z,-3.71
2018-02-23T05:26:11.862Z,-3.71
2018-02-23T05:27:11.776Z,-3.63
2018-02-23T05:28:11.677Z,-3.67
2018-02-23T05:29:11.608Z,-3.63
2018-02-23T05:30:11.508Z,-3.72
2018-02-23T05:31:11.417Z,-3.85
2018-02-23T05:32:11.344Z,-3.79
2018-02-23T05:33:11.246Z,-3.71
2018-02-23T05:34:11.165Z,-3.88
2018-02-23T05:35:11.077Z,-3.78
2018-02-23T05:36:10.986Z,-3.79
2018-02-23T05:37:10.902Z,-3.79
2018-02-23T05:38:10.805Z,-3.81
2018-02-23T05:39:10.717Z,-3.83
2018-02-23T05:40:10.638Z,-3.91
2018-02-23T05:41:10.549Z,-3.90
2018-02-23T05:42:10.465Z,-3.94
2018-02-23T05:43:10.368Z,-3.91
2018-02-23T05:44:10.289Z,-3.96
2018-02-23T05:45:10.209Z,-3.96
2018-02-23T05:46:10.103Z,-3.94
2018-02-23T05:47:10.016Z,-3.97
2018-02-23T05:48:09.951Z,-3.94
2018-02-23T05:49:09.846Z,-3.96
2018-02-23T05:50:09.765Z,-4.01
2018-02-23T05:51:09.676Z,-4.03
2018-02-23T05:52:09.587Z,-4.03
2018-02-23T05:53:09.515Z,-4.01
2018-02-23T05:54:09.404Z,-4.12
2018-02-23T05:55:09.314Z,-4.12
2018-02-23T05:56:09.251Z,-4.14
2018-02-23T05:57:09.149Z,-4.14
2018-02-23T05:58:09.066Z,-4.11
2018-02-23T05:59:08.971Z,-4.18
2018-02-23T06:00:08.881Z,-4.15
2018-02-23T06:01:08.812Z,-4.11
2018-02-23T06:02:08.713Z,-4.18
2018-02-23T06:03:08.618Z,-4.15
2018-02-23T06:04:08.546Z,-4.22
2018-02-23T06:05:08.450Z,-4.17
2018-02-23T06:06:08.358Z,-4.22
2018-02-23T06:07:08.279Z,-4.25
2018-02-23T06:08:08.187Z,-4.32
2018-02-23T06:09:08.101Z,-4.30
2018-02-23T06:10:08.008Z,-4.32
2018-02-23T06:11:07.959Z,-4.32
2018-02-23T06:12:07.842Z,-4.32
2018-02-23T06:13:07.743Z,-4.32
2018-02-23T06:14:07.667Z,-4.30
2018-02-23T06:15:07.571Z,-4.33
2018-02-23T06:16:07.491Z,-4.30
2018-02-23T06:17:07.398Z,-4.38
2018-02-23T06:18:07.315Z,-4.32
2018-02-23T06:19:07.227Z,-4.30
2018-02-23T06:20:07.151Z,-4.38
2018-02-23T06:21:07.044Z,-4.38
2018-02-23T06:22:06.961Z,-4.33
2018-02-23T06:23:06.881Z,-4.40
2018-02-23T06:24:06.794Z,-4.38
2018-02-23T06:25:06.702Z,-4.38
2018-02-23T06:26:06.608Z,-4.38
2018-02-23T06:27:06.521Z,-4.40
2018-02-23T06:28:06.457Z,-4.36
2018-02-23T06:29:06.352Z,-4.32
2018-02-23T06:30:06.256Z,-4.30
2018-02-23T06:31:06.188Z,-4.38
2018-02-23T06:32:06.071Z,-4.30
2018-02-23T06:33:05.998Z,-4.30
2018-02-23T06:34:05.901Z,-4.30
2018-02-23T06:35:05.807Z,-4.28
2018-02-23T06:36:05.724Z,-4.28
2018-02-23T06:37:05.635Z,-4.32
2018-02-23T06:38:05.554Z,-4.15
2018-02-23T06:39:05.469Z,-4.33
2018-02-23T06:40:05.373Z,-4.32
2018-02-23T06:41:05.287Z,-4.33
2018-02-23T06:42:05.203Z,-4.25
2018-02-23T06:43:05.121Z,-4.20
2018-02-23T06:44:05.026Z,-4.22
2018-02-23T06:45:04.943Z,-4.04
2018-02-23T06:46:04.851Z,-3.94
2018-02-23T06:47:04.770Z,-4.04
2018-02-23T06:48:04.672Z,-4.04
2018-02-23T06:49:04.591Z,-4.12
2018-02-23T06:50:04.498Z,-3.99
2018-02-23T06:51:04.410Z,-4.01
2018-02-23T06:52:04.328Z,-4.07
2018-02-23T06:53:04.234Z,-3.99
2018-02-23T06:54:04.149Z,-4.00
2018-02-23T06:55:04.081Z,-4.06
2018-02-23T06:56:03.979Z,-3.99
2018-02-23T06:57:03.902Z,-4.03
2018-02-23T06:58:03.799Z,-3.96
2018-02-23T06:59:03.719Z,-3.99
2018-02-23T07:00:03.630Z,-3.90
2018-02-23T07:01:03.555Z,-3.72
2018-02-23T07:02:03.459Z,-3.59
2018-02-23T07:03:03.365Z,-3.54
2018-02-23T07:04:03.274Z,-3.59
2018-02-23T07:05:03.201Z,-3.54
2018-02-23T07:06:03.097Z,-3.60
2018-02-23T07:07:03.017Z,-3.64
2018-02-23T07:08:02.926Z,-3.57
2018-02-23T07:09:02.856Z,-3.82
2018-02-23T07:10:02.759Z,-3.86
2018-02-23T07:11:02.749Z,-3.90
2018-02-23T07:12:02.587Z,-3.86
2018-02-23T07:13:02.490Z,-3.75
2018-02-23T07:14:02.398Z,-3.67
2018-02-23T07:15:02.312Z,-3.64
2018-02-23T07:16:02.228Z,-3.72
2018-02-23T07:17:02.152Z,-3.69
2018-02-23T07:18:02.059Z,-3.62
2018-02-23T07:19:01.976Z,-3.66
2018-02-23T07:20:01.876Z,-3.64
2018-02-23T07:21:01.788Z,-3.82
2018-02-23T07:22:01.703Z,-3.57
2018-02-23T07:23:01.623Z,-3.48
2018-02-23T07:24:01.533Z,-3.41
2018-02-23T07:25:01.463Z,-3.31
2018-02-23T07:26:01.351Z,-3.17
2018-02-23T07:27:01.278Z,-2.91
2018-02-23T07:28:01.191Z,-2.89
2018-02-23T07:29:01.095Z,-2.64
2018-02-23T07:30:01.005Z,-2.79
2018-02-23T07:31:00.924Z,-3.12
2018-02-23T07:32:00.834Z,-3.12
2018-02-23T07:33:00.757Z,-3.00
2018-02-23T07:34:00.657Z,-2.92
2018-02-23T07:35:00.567Z,-2.77
2018-02-23T07:36:00.481Z,-2.56
2018-02-23T07:37:00.404Z,-2.45
2018-02-23T07:38:00.315Z,-2.48
2018-02-23T07:39:00.238Z,-2.52
2018-02-23T07:40:00.136Z,-2.56
2018-02-23T07:41:00.059Z,-2.63
2018-02-23T07:41:59.966Z,-2.55
2018-02-23T07:42:59.877Z,-2.34
2018-02-23T07:43:59.805Z,-2.32
2018-02-23T07:44:59.704Z,-2.58
2018-02-23T07:45:59.633Z,-2.58
2018-02-23T07:46:59.532Z,-2.71
2018-02-23T07:47:59.446Z,-2.26
2018-02-23T07:48:59.357Z,-2.29
2018-02-23T07:49:59.265Z,-2.63
2018-02-23T07:50:59.177Z,-2.92
2018-02-23T07:51:59.095Z,-2.85
2018-02-23T07:52:59.011Z,-2.85
2018-02-23T07:53:58.932Z,-2.97
2018-02-23T07:54:58.833Z,-3.00
2018-02-23T07:55:58.753Z,-3.10
2018-02-23T07:56:58.676Z,-3.14
2018-02-23T07:57:58.585Z,-3.14
2018-02-23T07:58:58.502Z,-3.09
2018-02-23T07:59:58.410Z,-3.25
2018-02-23T08:00:58.329Z,-3.24
2018-02-23T08:01:58.232Z,-3.41
2018-02-23T08:02:58.146Z,-3.33
2018-02-23T08:03:58.054Z,-3.33
2018-02-23T08:04:57.978Z,-3.31
2018-02-23T08:05:57.887Z,-3.15
2018-02-23T08:06:57.806Z,-3.28
2018-02-23T08:07:57.775Z,-3.24
2018-02-23T08:08:57.638Z,-3.25
2018-02-23T08:09:57.562Z,-3.30
2018-02-23T08:10:57.465Z,-3.17
2018-02-23T08:11:57.370Z,-3.02
2018-02-23T08:12:57.293Z,-3.27
2018-02-23T08:13:57.366Z,-3.18
2018-02-23T08:14:57.105Z,-3.31
2018-02-23T08:15:57.030Z,-3.10
2018-02-23T08:16:56.939Z,-3.03
2018-02-23T08:17:56.860Z,-3.15
2018-02-23T08:18:56.766Z,-3.10
2018-02-23T08:19:56.671Z,-2.97
2018-02-23T08:20:56.618Z,-2.89
2018-02-23T08:21:56.493Z,-2.97
2018-02-23T08:22:56.413Z,-2.89
2018-02-23T08:23:56.335Z,-2.73
2018-02-23T08:24:56.240Z,-2.66
2018-02-23T08:25:56.168Z,-2.52
2018-02-23T08:26:56.076Z,-2.23
2018-02-23T08:27:55.989Z,-2.15
2018-02-23T08:28:55.915Z,-2.05
2018-02-23T08:29:55.816Z,-2.03
2018-02-23T08:30:55.730Z,-1.92
2018-02-23T08:31:55.644Z,-1.77
2018-02-23T08:32:55.546Z,-1.77
2018-02-23T08:33:55.465Z,-1.34
2018-02-23T08:34:55.421Z,-1.31
2018-02-23T08:35:55.291Z,-1.31
2018-02-23T08:36:55.219Z,-1.27
2018-02-23T08:37:55.108Z,-1.12
2018-02-23T08:38:55.047Z,-1.30
2018-02-23T08:39:54.949Z,-1.72
2018-02-23T08:40:54.857Z,-1.54
2018-02-23T08:41:54.774Z,-1.56
2018-02-23T08:42:54.686Z,-1.61
2018-02-23T08:43:54.607Z,-1.76
2018-02-23T08:44:54.516Z,-1.90
2018-02-23T08:45:54.442Z,-1.87
2018-02-23T08:46:54.353Z,-1.51
2018-02-23T08:47:54.264Z,-1.16
2018-02-23T08:48:54.196Z,-0.79
2018-02-23T08:49:54.121Z,-0.72
2018-02-23T08:50:54.015Z,-0.57
2018-02-23T08:51:53.934Z,-1.01
2018-02-23T08:52:53.839Z,-1.22
2018-02-23T08:53:53.791Z,-1.15
2018-02-23T08:54:53.664Z,-1.33
2018-02-23T08:55:53.589Z,-1.16
2018-02-23T08:56:53.505Z,-1.58
2018-02-23T08:57:53.419Z,-1.16
2018-02-23T08:58:53.340Z,-0.95
2018-02-23T08:59:53.243Z,-1.19
2018-02-23T09:00:53.162Z,-0.99
2018-02-23T09:01:53.082Z,-0.69
2018-02-23T09:02:52.986Z,-0.80
2018-02-23T09:03:52.905Z,-0.39
2018-02-23T09:04:52.810Z,0.18
2018-02-23T09:05:52.744Z,0.11
2018-02-23T09:06:52.662Z,0.02
2018-02-23T09:07:52.562Z,-0.19
2018-02-23T09:08:52.484Z,0.04
2018-02-23T09:09:52.386Z,0.00
2018-02-23T09:10:52.315Z,0.62
2018-02-23T09:11:52.227Z,-0.28
2018-02-23T09:12:52.136Z,0.44
2018-02-23T09:13:52.053Z,-0.33
2018-02-23T09:14:51.978Z,0.21
2018-02-23T09:15:51.886Z,-0.05
2018-02-23T09:16:51.813Z,-0.72
2018-02-23T09:17:51.719Z,-0.11
2018-02-23T09:18:51.650Z,0.62
2018-02-23T09:19:51.558Z,0.62
2018-02-23T09:20:51.462Z,0.35
2018-02-23T09:21:51.399Z,0.33
2018-02-23T09:22:51.311Z,0.60
2018-02-23T09:23:51.216Z,0.66
2018-02-23T09:24:51.149Z,0.66
2018-02-23T09:25:51.052Z,0.79
2018-02-23T09:26:50.965Z,-0.28
2018-02-23T09:27:50.898Z,-0.51
2018-02-23T09:28:50.826Z,-0.58
2018-02-23T09:29:50.715Z,-0.82
2018-02-23T09:30:50.635Z,-1.17
2018-02-23T09:31:50.557Z,-1.48
2018-02-23T09:32:50.470Z,-1.33
2018-02-23T09:33:50.410Z,-0.91
2018-02-23T09:34:50.317Z,-0.49
2018-02-23T09:35:50.216Z,-0.46
2018-02-23T09:36:50.135Z,-0.44
2018-02-23T09:37:50.070Z,-0.55
2018-02-23T09:38:49.964Z,-0.42
2018-02-23T09:39:49.884Z,-0.94
2018-02-23T09:40:49.788Z,-0.98
2018-02-23T09:41:49.719Z,-0.97
2018-02-23T09:42:49.637Z,-0.95
2018-02-23T09:43:49.548Z,-1.13
2018-02-23T09:44:49.464Z,-1.09
2018-02-23T09:45:49.385Z,-1.09
2018-02-23T09:46:49.290Z,-1.17
2018-02-23T09:47:49.227Z,-1.10
2018-02-23T09:48:49.123Z,-1.25
2018-02-23T09:49:49.039Z,-1.35
2018-02-23T09:50:48.980Z,-1.46
2018-02-23T09:51:48.869Z,-1.67
2018-02-23T09:52:48.801Z,-1.66
2018-02-23T09:53:48.690Z,-1.51
2018-02-23T09:54:48.616Z,-1.33
2018-02-23T09:55:48.544Z,-1.30
2018-02-23T09:56:48.443Z,-1.35
2018-02-23T09:57:48.365Z,-1.43
2018-02-23T09:58:48.282Z,-1.48
2018-02-23T09:59:48.194Z,-1.34
2018-02-23T10:00:48.121Z,-1.25
2018-02-23T10:01:48.018Z,-1.17
2018-02-23T10:02:47.931Z,-1.15
2018-02-23T10:03:47.847Z,-1.13
2018-02-23T10:04:47.766Z,-1.17
2018-02-23T10:05:47.691Z,-1.17
2018-02-23T10:06:47.604Z,-1.27
2018-02-23T10:07:47.517Z,-1.51
2018-02-23T10:08:47.422Z,-1.69
2018-02-23T10:09:47.332Z,-1.77
2018-02-23T10:10:47.252Z,-1.58
2018-02-23T10:11:47.174Z,-1.52
2018-02-23T10:12:47.081Z,-1.33
2018-02-23T10:13:46.995Z,-1.31
2018-02-23T10:14:46.911Z,-1.37
2018-02-23T10:15:46.817Z,-1.34
2018-02-23T10:16:46.747Z,-1.15
2018-02-23T10:17:46.662Z,-0.98
2018-02-23T10:18:46.572Z,-1.01
2018-02-23T10:19:46.485Z,-0.83
2018-02-23T10:20:46.402Z,-0.85
2018-02-23T10:21:46.324Z,-0.83
2018-02-23T10:22:46.229Z,-0.82
2018-02-23T10:23:46.152Z,-1.01
2018-02-23T10:24:46.071Z,-0.89
2018-02-23T10:25:45.976Z,-0.83
2018-02-23T10:26:45.891Z,-0.86
2018-02-23T10:27:45.800Z,-0.55
2018-02-23T10:28:45.721Z,0.08
2018-02-23T10:29:45.645Z,0.49
2018-02-23T10:30:45.551Z,0.80
2018-02-23T10:31:45.482Z,0.94
2018-02-23T10:32:45.429Z,0.65
2018-02-23T10:33:45.283Z,-0.10
2018-02-23T10:34:45.197Z,-0.52
2018-02-23T10:35:45.132Z,-0.37
2018-02-23T10:36:45.035Z,-0.42
2018-02-23T10:37:44.951Z,-0.47
2018-02-23T10:38:44.881Z,-0.22
2018-02-23T10:39:44.785Z,-0.49
2018-02-23T10:40:44.703Z,-0.46
2018-02-23T10:41:45.039Z,-0.29
2018-02-23T10:42:44.520Z,-0.08
2018-02-23T10:43:44.449Z,0.17
2018-02-23T10:44:44.373Z,0.35
2018-02-23T10:45:44.277Z,0.11
2018-02-23T10:46:44.194Z,-0.08
2018-02-23T10:47:44.122Z,-0.08
2018-02-23T10:48:44.032Z,0.11
2018-02-23T10:49:43.937Z,0.04
2018-02-23T10:50:43.878Z,-0.21
2018-02-23T10:51:43.825Z,0.00
2018-02-23T10:52:43.693Z,-0.01
2018-02-23T10:53:43.604Z,-0.03
2018-02-23T10:54:43.515Z,0.00
2018-02-23T10:55:43.441Z,0.28
2018-02-23T10:56:43.354Z,0.11
2018-02-23T10:57:43.276Z,-0.05
2018-02-23T10:58:43.180Z,-0.33
2018-02-23T10:59:43.123Z,-0.34
2018-02-23T11:00:43.134Z,-0.46
2018-02-23T11:01:42.936Z,-0.47
2018-02-23T11:02:42.853Z,-0.44
2018-02-23T11:03:42.772Z,-0.39
2018-02-23T11:04:42.676Z,-0.44
2018-02-23T11:05:42.598Z,-0.49
2018-02-23T11:06:42.507Z,-0.40
2018-02-23T11:07:42.438Z,-0.03
2018-02-23T11:08:42.338Z,-0.31
2018-02-23T11:09:42.256Z,-0.14
2018-02-23T11:10:42.278Z,-0.10
2018-02-23T11:11:42.095Z,0.14
2018-02-23T11:12:42.003Z,0.26
2018-02-23T11:13:41.920Z,0.55
2018-02-23T11:14:41.828Z,0.75
2018-02-23T11:15:41.753Z,0.90
2018-02-23T11:16:41.665Z,1.62
2018-02-23T11:17:41.586Z,1.84
2018-02-23T11:18:41.506Z,1.63
2018-02-23T11:19:41.420Z,1.47
2018-02-23T11:20:41.344Z,1.80
2018-02-23T11:21:41.253Z,1.70
2018-02-23T11:22:41.172Z,2.39
2018-02-23T11:23:41.096Z,2.52
2018-02-23T11:24:41.007Z,2.72
2018-02-23T11:25:41.237Z,2.71
2018-02-23T11:26:41.203Z,2.61
2018-02-23T11:27:40.751Z,2.82
2018-02-23T11:28:40.681Z,2.71
2018-02-23T11:29:40.590Z,2.71
2018-02-23T11:30:40.524Z,2.38
2018-02-23T11:31:40.432Z,2.12
2018-02-23T11:32:40.340Z,1.11
2018-02-23T11:33:40.277Z,0.83
2018-02-23T11:34:40.180Z,0.94
2018-02-23T11:35:40.110Z,0.42
2018-02-23T11:36:40.015Z,0.68
2018-02-23T11:37:39.932Z,0.98
2018-02-23T11:38:39.856Z,1.08
2018-02-23T11:39:39.765Z,1.44
2018-02-23T11:40:39.708Z,2.03
2018-02-23T11:41:39.604Z,2.39
2018-02-23T11:42:39.529Z,2.90
2018-02-23T11:43:39.447Z,2.75
2018-02-23T11:44:39.357Z,3.17
2018-02-23T11:45:39.287Z,3.47
2018-02-23T11:46:39.245Z,3.55
2018-02-23T11:47:39.136Z,3.11
2018-02-23T11:48:39.039Z,2.49
2018-02-23T11:49:38.955Z,2.17
2018-02-23T11:50:38.880Z,2.38
2018-02-23T11:51:38.797Z,2.54
2018-02-23T11:52:38.705Z,2.82
2018-02-23T11:53:38.634Z,2.31
2018-02-23T11:54:38.554Z,2.03
2018-02-23T11:55:38.520Z,3.14
2018-02-23T11:56:38.383Z,3.36
2018-02-23T11:57:38.310Z,4.05
2018-02-23T11:58:38.319Z,3.70
2018-02-23T11:59:38.164Z,4.41
2018-02-23T12:00:38.056Z,5.03
2018-02-23T12:01:37.997Z,4.85
2018-02-23T12:02:37.915Z,5.15
2018-02-23T12:03:37.851Z,4.18
2018-02-23T12:04:37.755Z,3.83
2018-02-23T12:05:37.655Z,3.62
2018-02-23T12:06:37.594Z,3.65
2018-02-23T12:07:37.509Z,3.03
2018-02-23T12:08:37.419Z,2.52
2018-02-23T12:09:37.360Z,1.79
2018-02-23T12:10:37.308Z,2.17
2018-02-23T12:11:37.189Z,2.24
2018-02-23T12:12:37.112Z,2.93
2018-02-23T12:13:37.022Z,3.14
2018-02-23T12:14:36.953Z,3.17
2018-02-23T12:15:36.862Z,3.75
2018-02-23T12:16:36.780Z,3.20
2018-02-23T12:17:36.698Z,2.60
2018-02-23T12:18:36.624Z,2.69
2018-02-23T12:19:36.565Z,2.38
2018-02-23T12:20:36.462Z,2.43
2018-02-23T12:21:36.384Z,2.25
2018-02-23T12:22:36.303Z,2.84
2018-02-23T12:23:36.237Z,2.84
2018-02-23T12:24:36.141Z,2.57
2018-02-23T12:25:36.064Z,2.27
2018-02-23T12:26:35.988Z,2.95
2018-02-23T12:27:35.913Z,2.75
2018-02-23T12:28:35.830Z,2.39
2018-02-23T12:29:35.761Z,2.82
2018-02-23T12:30:35.657Z,2.93
2018-02-23T12:31:35.587Z,3.31
2018-02-23T12:32:35.499Z,3.13
2018-02-23T12:33:35.417Z,2.49
2018-02-23T12:34:35.340Z,2.66
2018-02-23T12:35:35.261Z,3.31
2018-02-23T12:36:35.187Z,3.62
2018-02-23T12:37:35.083Z,3.47
2018-02-23T12:38:35.015Z,3.24
2018-02-23T12:39:34.938Z,3.73
2018-02-23T12:40:34.848Z,3.58
2018-02-23T12:41:34.784Z,3.66
2018-02-23T12:42:34.692Z,3.52
2018-02-23T12:43:34.625Z,3.26
2018-02-23T12:44:34.540Z,3.29
2018-02-23T12:45:34.455Z,3.84
2018-02-23T12:46:34.366Z,3.40
2018-02-23T12:47:34.288Z,4.08
2018-02-23T12:48:34.212Z,3.91
2018-02-23T12:49:34.141Z,4.36
2018-02-23T12:50:34.060Z,4.54
2018-02-23T12:51:33.974Z,3.60
2018-02-23T12:52:33.889Z,3.88
2018-02-23T12:53:33.798Z,4.06
2018-02-23T12:54:33.782Z,4.02
2018-02-23T12:55:33.652Z,3.32
2018-02-23T12:56:33.562Z,3.90